Time;durP1;ratioP1;P1;durP2;ratioP2;P2;SDS_P1;SDS_P2;PMS_P1;PMS_P2;Temp;Humidity;BMP_temperature;BMP_pressure;BME280_temperature;BME280_humidity;BME280_pressure;Samples;Min_cycle;Max_cycle;Signal;HPM_P1;HPM_P2
2023/06/02 00:01:14;;;;;;;6.37;5.10;;;17.40;87.20;;;;;;5009798;28;20260;-69
2023/06/02 00:03:40;;;;;;;8.43;6.13;;;17.20;87.70;;;;;;4992114;28;20217;-72
2023/06/02 00:06:11;;;;;;;6.13;4.90;;;17.30;87.50;;;;;;5004459;28;20488;-71
2023/06/02 00:08:40;;;;;;;6.13;5.13;;;17.40;87.00;;;;;;5008820;28;20472;-71
2023/06/02 00:11:07;;;;;;;6.60;5.70;;;17.50;87.20;;;;;;5008347;28;21048;-71
2023/06/02 00:13:33;;;;;;;5.60;3.97;;;17.50;87.30;;;;;;5008510;28;20472;-71
2023/06/02 00:16:00;;;;;;;7.03;4.97;;;17.40;88.30;;;;;;5009414;28;20469;-71
2023/06/02 00:18:26;;;;;;;5.23;4.37;;;17.30;87.90;;;;;;4983404;28;20454;-71
2023/06/02 00:20:53;;;;;;;5.40;4.23;;;17.10;88.20;;;;;;5008987;28;20453;-72
2023/06/02 00:23:19;;;;;;;6.33;4.10;;;17.00;88.80;;;;;;4988771;28;20984;-70
2023/06/02 00:25:45;;;;;;;5.90;4.80;;;17.10;88.90;;;;;;5007346;28;20480;-71
2023/06/02 00:28:11;;;;;;;5.13;4.47;;;17.10;88.30;;;;;;5003872;28;20477;-70
2023/06/02 00:30:37;;;;;;;6.17;4.70;;;17.20;88.00;;;;;;5007280;28;20478;-70
2023/06/02 00:33:03;;;;;;;8.50;5.03;;;17.40;87.00;;;;;;4986396;28;20232;-71
2023/06/02 00:35:29;;;;;;;5.63;4.00;;;17.30;87.30;;;;;;4990265;28;20229;-71
2023/06/02 00:37:55;;;;;;;6.97;5.20;;;17.30;87.30;;;;;;4991694;28;20975;-71
2023/06/02 00:40:22;;;;;;;5.97;4.40;;;17.30;87.20;;;;;;4989682;28;20218;-69
2023/06/02 00:42:48;;;;;;;7.80;5.20;;;17.20;88.00;;;;;;4991916;28;20222;-70
2023/06/02 00:45:13;;;;;;;5.83;4.70;;;17.20;87.50;;;;;;5008891;28;20460;-71
2023/06/02 00:47:39;;;;;;;5.90;5.20;;;17.30;87.00;;;;;;5006731;28;20250;-71
2023/06/02 00:50:05;;;;;;;7.27;4.77;;;17.50;87.00;;;;;;5005888;28;20280;-70
2023/06/02 00:52:33;;;;;;;5.07;3.90;;;17.50;86.30;;;;;;5008524;28;20271;-71
2023/06/02 00:55:00;;;;;;;7.90;4.90;;;17.40;86.60;;;;;;4988241;28;20516;-71
2023/06/02 00:57:28;;;;;;;7.27;5.07;;;17.30;86.50;;;;;;4985730;28;20453;-71
2023/06/02 00:59:55;;;;;;;5.73;5.17;;;17.30;86.50;;;;;;4991502;28;20448;-71
2023/06/02 01:02:22;;;;;;;7.23;4.70;;;17.30;86.40;;;;;;4981483;28;20512;-71
2023/06/02 01:04:50;;;;;;;7.50;5.10;;;17.30;86.80;;;;;;5009461;28;20456;-71
2023/06/02 01:07:23;;;;;;;5.90;4.77;;;17.10;87.30;;;;;;5007201;28;20938;-71
2023/06/02 01:09:56;;;;;;;6.40;5.03;;;17.10;87.10;;;;;;5002159;28;20479;-71
2023/06/02 01:12:23;;;;;;;7.23;4.97;;;16.90;87.60;;;;;;5005381;28;21013;-71
2023/06/02 01:14:49;;;;;;;8.50;5.63;;;16.80;88.30;;;;;;5006165;28;20460;-70
2023/06/02 01:17:17;;;;;;;6.17;5.00;;;16.70;88.20;;;;;;4990650;28;20484;-71
2023/06/02 01:19:45;;;;;;;7.63;5.70;;;16.70;88.50;;;;;;5007155;28;20449;-71
2023/06/02 01:22:15;;;;;;;9.10;5.77;;;16.70;88.40;;;;;;5005324;28;20449;-71
2023/06/02 01:24:41;;;;;;;5.80;4.80;;;16.50;89.00;;;;;;4990183;28;20452;-71
2023/06/02 01:27:08;;;;;;;10.50;4.80;;;16.60;88.80;;;;;;4998580;28;20551;-71
2023/06/02 01:29:35;;;;;;;7.57;5.87;;;16.50;89.20;;;;;;4999906;28;20469;-71
2023/06/02 01:32:10;;;;;;;6.83;4.80;;;16.40;89.90;;;;;;4994443;28;20556;-71
2023/06/02 01:34:50;;;;;;;10.20;5.50;;;16.40;89.40;;;;;;4991205;28;20472;-70
2023/06/02 01:37:19;;;;;;;6.10;4.77;;;16.30;89.70;;;;;;4998655;28;20998;-70
2023/06/02 01:39:46;;;;;;;6.20;4.30;;;16.30;90.00;;;;;;5000483;28;20457;-70
2023/06/02 01:42:14;;;;;;;6.50;4.60;;;16.40;90.00;;;;;;4987313;28;20468;-70
2023/06/02 01:44:42;;;;;;;7.80;5.17;;;16.50;88.90;;;;;;5001875;28;21001;-70
2023/06/02 01:47:09;;;;;;;6.90;5.33;;;16.40;89.20;;;;;;4996812;28;20978;-70
2023/06/02 01:49:35;;;;;;;5.93;4.93;;;16.30;89.40;;;;;;4983893;28;20460;-71
2023/06/02 01:52:02;;;;;;;8.80;5.70;;;16.30;89.60;;;;;;4996500;28;20465;-71
2023/06/02 01:54:28;;;;;;;7.43;5.47;;;16.30;89.40;;;;;;5000570;28;20213;-71
2023/06/02 01:56:54;;;;;;;5.20;4.70;;;16.30;89.70;;;;;;4998962;28;20453;-70
2023/06/02 01:59:20;;;;;;;6.33;4.97;;;16.30;89.60;;;;;;4999259;28;20947;-70
2023/06/02 02:01:46;;;;;;;5.00;4.50;;;16.30;89.30;;;;;;4995564;28;20214;-70
2023/06/02 02:04:12;;;;;;;6.47;4.87;;;16.20;89.20;;;;;;5001014;28;20459;-70
2023/06/02 02:06:39;;;;;;;7.97;5.47;;;16.10;89.60;;;;;;5000543;28;20215;-71
2023/06/02 02:09:07;;;;;;;7.17;5.70;;;16.10;89.70;;;;;;5001490;28;20476;-70
2023/06/02 02:11:33;;;;;;;6.37;4.17;;;16.00;90.40;;;;;;5005465;28;20982;-71
2023/06/02 02:13:59;;;;;;;6.63;5.83;;;15.90;90.10;;;;;;4999118;28;20975;-70
2023/06/02 02:16:24;;;;;;;9.90;5.60;;;15.80;90.30;;;;;;5003824;28;20547;-69
2023/06/02 02:18:52;;;;;;;4.70;4.20;;;15.80;90.40;;;;;;5003400;28;20815;-70
2023/06/02 02:21:18;;;;;;;8.60;5.60;;;15.80;90.50;;;;;;5000705;28;20787;-69
2023/06/02 02:23:44;;;;;;;6.00;4.67;;;15.70;90.60;;;;;;4993795;28;20457;-71
2023/06/02 02:26:10;;;;;;;5.63;4.90;;;15.60;90.70;;;;;;4985257;28;20487;-70
2023/06/02 02:28:37;;;;;;;6.03;5.07;;;15.70;90.60;;;;;;4981036;28;20245;-70
2023/06/02 02:31:04;;;;;;;6.57;4.83;;;15.70;91.20;;;;;;5000712;28;20233;-70
2023/06/02 02:33:31;;;;;;;6.17;5.00;;;15.60;90.60;;;;;;5003866;28;20560;-70
2023/06/02 02:35:56;;;;;;;6.00;4.80;;;15.60;90.50;;;;;;5000563;28;20893;-71
2023/06/02 02:38:22;;;;;;;5.63;5.03;;;15.60;90.60;;;;;;5002485;28;20233;-70
2023/06/02 02:40:48;;;;;;;5.70;5.10;;;15.60;90.60;;;;;;4995401;28;20449;-71
2023/06/02 02:43:15;;;;;;;7.10;4.70;;;15.50;90.50;;;;;;5000395;28;20276;-71
2023/06/02 02:45:41;;;;;;;6.47;5.10;;;15.50;90.70;;;;;;5002885;28;20728;-71
2023/06/02 02:48:07;;;;;;;4.50;4.10;;;15.30;90.70;;;;;;4997002;28;20491;-71
2023/06/02 02:50:33;;;;;;;5.80;4.60;;;15.10;91.20;;;;;;4986651;28;20229;-69
2023/06/02 02:52:59;;;;;;;7.43;4.50;;;15.30;91.10;;;;;;4976340;28;20488;-70
2023/06/02 02:55:25;;;;;;;7.73;4.57;;;15.30;90.90;;;;;;5001548;28;20265;-70
2023/06/02 02:57:52;;;;;;;10.70;5.00;;;15.60;90.70;;;;;;5002577;28;20222;-71
2023/06/02 03:00:18;;;;;;;6.00;5.13;;;15.30;90.60;;;;;;4983031;28;20221;-69
2023/06/02 03:02:44;;;;;;;5.90;4.57;;;15.30;90.90;;;;;;5003001;28;20480;-70
2023/06/02 03:05:13;;;;;;;6.60;4.97;;;15.20;90.90;;;;;;5000121;28;20540;-70
2023/06/02 03:07:39;;;;;;;6.37;4.27;;;15.10;91.20;;;;;;4985074;28;20473;-70
2023/06/02 03:10:06;;;;;;;5.87;4.87;;;15.30;90.90;;;;;;4983077;28;20481;-70
2023/06/02 03:12:33;;;;;;;7.50;5.50;;;15.30;90.80;;;;;;5003101;28;20456;-70
2023/06/02 03:15:01;;;;;;;7.83;5.37;;;15.30;90.70;;;;;;4980564;28;20473;-71
2023/06/02 03:17:27;;;;;;;6.00;4.57;;;15.30;90.60;;;;;;5009633;28;20456;-70
2023/06/02 03:19:55;;;;;;;7.03;5.30;;;15.30;90.50;;;;;;5003356;28;20464;-70
2023/06/02 03:22:22;;;;;;;5.90;4.57;;;15.10;90.70;;;;;;4982481;28;20623;-70
2023/06/02 03:24:48;;;;;;;6.93;5.40;;;15.20;90.80;;;;;;5002258;28;20465;-70
2023/06/02 03:27:15;;;;;;;4.97;4.53;;;15.20;91.20;;;;;;4983073;28;20467;-71
2023/06/02 03:29:48;;;;;;;10.33;5.20;;;15.10;91.00;;;;;;4986453;28;20500;-70
2023/06/02 03:32:17;;;;;;;7.97;5.17;;;15.10;91.20;;;;;;4983051;28;20843;-70
2023/06/02 03:34:44;;;;;;;5.53;4.87;;;15.00;91.30;;;;;;5004603;28;20523;-70
2023/06/02 03:37:11;;;;;;;6.73;4.97;;;14.80;91.80;;;;;;5003035;28;20978;-70
2023/06/02 03:39:38;;;;;;;6.50;5.20;;;14.70;92.20;;;;;;5001395;28;20871;-70
2023/06/02 03:42:04;;;;;;;6.17;5.20;;;14.80;92.30;;;;;;4999415;28;20452;-70
2023/06/02 03:44:30;;;;;;;10.77;5.33;;;14.80;92.30;;;;;;5002163;28;20457;-70
2023/06/02 03:46:56;;;;;;;6.53;5.20;;;14.80;92.40;;;;;;4998985;28;20817;-71
2023/06/02 03:49:26;;;;;;;5.77;4.93;;;14.70;92.40;;;;;;4985952;28;20464;-71
2023/06/02 03:51:53;;;;;;;5.20;4.43;;;14.80;92.80;;;;;;5002973;28;20218;-69
2023/06/02 03:54:19;;;;;;;5.70;5.07;;;14.80;92.50;;;;;;4995211;28;21000;-68
2023/06/02 03:56:45;;;;;;;7.57;5.00;;;14.90;92.50;;;;;;4985819;28;20665;-69
2023/06/02 03:59:11;;;;;;;6.17;4.70;;;14.90;92.60;;;;;;4988263;28;20489;-70
2023/06/02 04:01:39;;;;;;;7.33;4.60;;;14.90;92.40;;;;;;4985672;28;20692;-69
2023/06/02 04:04:05;;;;;;;5.97;4.73;;;14.90;92.90;;;;;;4998461;28;21076;-69
2023/06/02 04:06:31;;;;;;;5.57;4.67;;;15.00;92.60;;;;;;4985672;28;20449;-70
2023/06/02 04:08:57;;;;;;;7.73;5.00;;;15.00;92.50;;;;;;4997853;28;20484;-70
2023/06/02 04:11:25;;;;;;;6.60;4.50;;;15.00;92.50;;;;;;4998980;28;20222;-70
2023/06/02 04:13:52;;;;;;;5.03;4.33;;;14.90;92.70;;;;;;4988072;28;20512;-70
2023/06/02 04:16:18;;;;;;;6.87;4.93;;;15.00;92.60;;;;;;4979895;28;21023;-69
2023/06/02 04:18:45;;;;;;;12.73;5.10;;;15.00;92.70;;;;;;4999682;28;20503;-70
2023/06/02 04:21:11;;;;;;;6.97;4.93;;;15.00;93.00;;;;;;4979858;28;20469;-72
2023/06/02 04:23:38;;;;;;;7.00;4.53;;;15.00;93.00;;;;;;4998970;28;20461;-71
2023/06/02 04:26:05;;;;;;;6.70;5.47;;;15.10;92.90;;;;;;4980661;28;20465;-70
2023/06/02 04:28:31;;;;;;;5.07;4.43;;;15.10;93.10;;;;;;4998954;28;20214;-70
2023/06/02 04:30:59;;;;;;;5.43;4.30;;;15.20;92.80;;;;;;4997197;28;20523;-70
2023/06/02 04:33:28;;;;;;;5.40;4.67;;;15.20;93.10;;;;;;4986110;28;20472;-71
2023/06/02 04:35:55;;;;;;;4.83;4.00;;;15.20;93.20;;;;;;5002991;28;20520;-70
2023/06/02 04:38:21;;;;;;;5.27;4.77;;;15.20;93.70;;;;;;4995836;28;20268;-70
2023/06/02 04:40:47;;;;;;;8.17;4.50;;;15.20;94.00;;;;;;5001726;28;20507;-69
2023/06/02 04:43:14;;;;;;;12.20;5.00;;;15.10;93.90;;;;;;4984852;28;20206;-70
2023/06/02 04:45:47;;;;;;;7.47;5.83;;;15.10;93.90;;;;;;4981002;28;20468;-70
2023/06/02 04:48:14;;;;;;;6.70;5.80;;;15.10;94.00;;;;;;5001163;28;20257;-70
2023/06/02 04:50:40;;;;;;;6.40;5.07;;;15.10;93.90;;;;;;4980409;28;20538;-71
2023/06/02 04:53:07;;;;;;;7.03;5.60;;;15.20;93.90;;;;;;4998870;28;20234;-70
2023/06/02 04:55:33;;;;;;;10.70;5.40;;;15.10;94.00;;;;;;5001330;28;20467;-70
2023/06/02 04:57:58;;;;;;;7.60;4.87;;;15.10;93.90;;;;;;4999897;28;20225;-70
2023/06/02 05:00:25;;;;;;;5.93;4.77;;;15.10;94.00;;;;;;4999192;28;20222;-70
2023/06/02 05:02:51;;;;;;;8.10;5.43;;;15.10;94.20;;;;;;4997182;28;20717;-70
2023/06/02 05:05:17;;;;;;;4.90;4.00;;;15.10;94.30;;;;;;4977065;28;20801;-70
2023/06/02 05:07:43;;;;;;;8.37;5.40;;;15.30;94.30;;;;;;4981900;28;20480;-70
2023/06/02 05:10:09;;;;;;;10.23;5.53;;;15.30;93.90;;;;;;4993718;28;20313;-71
2023/06/02 05:12:38;;;;;;;10.30;5.80;;;15.30;93.80;;;;;;4997670;28;20213;-70
2023/06/02 05:15:06;;;;;;;5.80;5.20;;;15.10;94.20;;;;;;4971572;28;20486;-70
2023/06/02 05:17:32;;;;;;;6.87;5.30;;;15.20;94.40;;;;;;4998429;28;20510;-70
2023/06/02 05:20:00;;;;;;;5.40;4.90;;;15.20;94.40;;;;;;4993622;28;20473;-71
2023/06/02 05:22:27;;;;;;;6.80;5.60;;;15.20;94.30;;;;;;4982748;28;20592;-70
2023/06/02 05:24:53;;;;;;;7.23;5.43;;;15.20;94.10;;;;;;4998122;28;20268;-70
2023/06/02 05:27:18;;;;;;;10.30;4.93;;;15.20;94.30;;;;;;4996590;28;20464;-68
2023/06/02 05:29:44;;;;;;;7.77;5.43;;;15.00;94.40;;;;;;4996748;28;20220;-70
2023/06/02 05:32:11;;;;;;;7.90;5.20;;;15.00;94.00;;;;;;4996435;28;20251;-70
2023/06/02 05:34:39;;;;;;;9.77;5.97;;;15.00;94.10;;;;;;4984004;28;20268;-70
2023/06/02 05:37:05;;;;;;;6.63;5.33;;;14.90;94.10;;;;;;4990236;28;20500;-69
2023/06/02 05:39:31;;;;;;;7.73;5.30;;;15.00;94.00;;;;;;4985307;28;20892;-71
2023/06/02 05:41:57;;;;;;;5.67;5.10;;;15.10;94.00;;;;;;4988041;28;21001;-70
2023/06/02 05:44:24;;;;;;;5.93;5.20;;;15.10;94.10;;;;;;4988305;28;20446;-69
2023/06/02 05:46:50;;;;;;;9.47;6.53;;;15.00;94.10;;;;;;4988461;28;20594;-71
2023/06/02 05:49:15;;;;;;;14.13;4.90;;;15.00;93.90;;;;;;4981215;28;20595;-69
2023/06/02 05:51:42;;;;;;;5.77;5.27;;;15.10;93.90;;;;;;4984054;28;20990;-70
2023/06/02 05:54:09;;;;;;;10.47;6.53;;;15.10;93.90;;;;;;5000437;28;20504;-71
2023/06/02 05:56:34;;;;;;;8.10;5.73;;;15.10;93.80;;;;;;4986129;28;20252;-70
2023/06/02 05:59:00;;;;;;;8.20;5.60;;;15.10;94.40;;;;;;4996695;28;20488;-71
2023/06/02 06:01:28;;;;;;;8.10;5.80;;;15.00;94.00;;;;;;4989319;28;20273;-70
2023/06/02 06:03:54;;;;;;;6.30;5.43;;;15.00;94.10;;;;;;5004556;28;20465;-70
2023/06/02 06:06:20;;;;;;;14.47;5.17;;;14.90;94.00;;;;;;4978055;28;20221;-70
2023/06/02 06:08:45;;;;;;;9.87;5.13;;;14.90;94.20;;;;;;5001492;28;20276;-70
2023/06/02 06:11:12;;;;;;;7.40;5.50;;;14.90;94.20;;;;;;4997347;28;20739;-70
2023/06/02 06:13:37;;;;;;;9.53;6.30;;;14.90;94.50;;;;;;4998716;28;20218;-69
2023/06/02 06:16:04;;;;;;;7.20;4.90;;;14.90;94.50;;;;;;4996322;28;20473;-70
2023/06/02 06:18:30;;;;;;;6.20;5.00;;;14.90;94.40;;;;;;5005368;28;21038;-71
2023/06/02 06:20:55;;;;;;;6.83;5.57;;;15.00;94.30;;;;;;5002641;28;20464;-71
2023/06/02 06:23:22;;;;;;;6.10;4.67;;;15.00;94.20;;;;;;5001063;28;20214;-70
2023/06/02 06:25:48;;;;;;;8.53;5.10;;;15.10;94.30;;;;;;4988996;28;20464;-70
2023/06/02 06:28:15;;;;;;;8.17;5.87;;;15.20;94.10;;;;;;4992009;28;20477;-69
2023/06/02 06:30:42;;;;;;;6.33;5.07;;;15.10;94.00;;;;;;5003542;28;20467;-71
2023/06/02 06:33:08;;;;;;;7.37;5.10;;;15.10;93.70;;;;;;4987420;28;21030;-69
2023/06/02 06:35:35;;;;;;;10.00;7.10;;;15.00;93.60;;;;;;4989492;28;20467;-70
2023/06/02 06:38:04;;;;;;;5.70;4.57;;;15.00;93.70;;;;;;5002250;28;20480;-70
2023/06/02 06:40:31;;;;;;;6.47;5.80;;;15.10;93.60;;;;;;4985576;28;20465;-70
2023/06/02 06:42:57;;;;;;;7.37;5.00;;;15.10;93.80;;;;;;4986828;28;20471;-71
2023/06/02 06:45:43;;;;;;;5.97;4.70;;;15.10;94.00;;;;;;5002932;28;20469;-71
2023/06/02 06:48:10;;;;;;;7.67;5.00;;;15.00;93.80;;;;;;4987550;28;20469;-70
2023/06/02 06:50:35;;;;;;;8.63;5.90;;;14.80;93.90;;;;;;5023384;28;20278;-71
2023/06/02 06:53:03;;;;;;;6.30;5.27;;;14.80;94.10;;;;;;5007953;28;20531;-69
2023/06/02 06:55:29;;;;;;;6.20;4.77;;;14.90;94.10;;;;;;4990097;28;20256;-70
2023/06/02 06:57:55;;;;;;;7.60;5.33;;;14.90;93.90;;;;;;4988112;28;20554;-69
2023/06/02 07:00:21;;;;;;;7.43;5.27;;;14.80;93.90;;;;;;5008770;28;20222;-70
2023/06/02 07:02:48;;;;;;;4.83;4.33;;;14.80;94.20;;;;;;5003326;28;20477;-69
2023/06/02 07:05:17;;;;;;;11.50;5.63;;;14.80;94.10;;;;;;4989318;28;20236;-71
2023/06/02 07:07:43;;;;;;;6.50;5.27;;;14.80;94.10;;;;;;4986960;28;20465;-70
2023/06/02 07:10:10;;;;;;;6.73;4.90;;;14.80;94.20;;;;;;5008713;28;20473;-71
2023/06/02 07:12:36;;;;;;;7.00;5.73;;;14.90;94.20;;;;;;5007199;28;20460;-69
2023/06/02 07:15:03;;;;;;;6.07;5.33;;;15.10;94.10;;;;;;5007208;28;20496;-70
2023/06/02 07:17:29;;;;;;;7.20;5.43;;;15.10;93.70;;;;;;5003673;28;20220;-69
2023/06/02 07:19:54;;;;;;;7.27;5.40;;;15.00;93.80;;;;;;5008466;28;20563;-70
2023/06/02 07:22:21;;;;;;;7.57;5.07;;;15.10;93.80;;;;;;4991219;28;20363;-69
2023/06/02 07:24:47;;;;;;;8.13;5.63;;;15.20;93.70;;;;;;5003322;28;20214;-70
2023/06/02 07:27:13;;;;;;;7.13;4.30;;;15.20;93.80;;;;;;5003294;28;20495;-70
2023/06/02 07:29:39;;;;;;;6.10;4.97;;;15.20;93.90;;;;;;5019797;28;20220;-70
2023/06/02 07:32:05;;;;;;;7.47;4.73;;;15.40;93.90;;;;;;5002279;28;20468;-70
2023/06/02 07:34:31;;;;;;;6.90;5.03;;;15.40;93.50;;;;;;5006521;28;20765;-70
2023/06/02 07:37:00;;;;;;;6.20;4.47;;;15.40;93.70;;;;;;4990353;28;20469;-70
2023/06/02 07:39:26;;;;;;;7.27;5.30;;;15.50;93.50;;;;;;5003681;28;20225;-70
2023/06/02 07:41:52;;;;;;;5.53;4.33;;;15.50;93.40;;;;;;5006172;28;20607;-70
2023/06/02 07:44:18;;;;;;;6.40;5.13;;;15.70;93.40;;;;;;5001392;28;20536;-70
2023/06/02 07:46:45;;;;;;;5.70;4.53;;;15.80;93.20;;;;;;5002590;28;20248;-71
2023/06/02 07:49:12;;;;;;;5.57;4.87;;;15.80;93.00;;;;;;4982406;28;20245;-70
2023/06/02 07:51:39;;;;;;;5.20;4.50;;;16.00;93.00;;;;;;5004566;28;20503;-71
2023/06/02 07:54:04;;;;;;;6.93;4.83;;;16.10;93.00;;;;;;5001247;28;20489;-70
2023/06/02 07:56:31;;;;;;;6.90;4.30;;;16.00;92.60;;;;;;5005168;28;20475;-69
2023/06/02 07:58:56;;;;;;;5.67;4.23;;;16.10;92.70;;;;;;5002235;28;20476;-71
2023/06/02 08:01:22;;;;;;;5.83;4.40;;;16.00;92.10;;;;;;5006653;28;20457;-69
2023/06/02 08:03:48;;;;;;;7.47;5.50;;;16.10;92.40;;;;;;5004808;28;20209;-70
2023/06/02 08:06:14;;;;;;;6.13;4.50;;;16.30;92.30;;;;;;4982874;28;20614;-70
2023/06/02 08:08:40;;;;;;;4.67;4.00;;;16.20;92.50;;;;;;5006962;28;20494;-71
2023/06/02 08:11:05;;;;;;;6.07;4.30;;;16.20;92.20;;;;;;4986851;28;20466;-71
2023/06/02 08:13:31;;;;;;;5.13;4.57;;;16.20;92.10;;;;;;5005558;28;20214;-71
2023/06/02 08:15:59;;;;;;;8.00;5.23;;;16.50;92.30;;;;;;5005230;28;20222;-71
2023/06/02 08:18:25;;;;;;;6.40;4.70;;;16.60;92.00;;;;;;5003004;28;20260;-70
2023/06/02 08:20:51;;;;;;;6.93;4.90;;;16.50;92.30;;;;;;5001641;28;20576;-71
2023/06/02 08:23:17;;;;;;;7.50;4.80;;;16.50;91.60;;;;;;5007144;28;20233;-71
2023/06/02 08:25:44;;;;;;;6.03;4.97;;;16.50;91.60;;;;;;5000430;28;20468;-71
2023/06/02 08:28:11;;;;;;;5.60;4.97;;;16.60;91.90;;;;;;4985830;28;20875;-71
2023/06/02 08:30:37;;;;;;;5.40;4.80;;;16.90;91.60;;;;;;5002709;28;20477;-70
2023/06/02 08:33:05;;;;;;;6.07;4.10;;;16.90;90.70;;;;;;5006811;28;20464;-70
2023/06/02 08:35:32;;;;;;;8.03;4.70;;;16.60;91.10;;;;;;5002874;28;20541;-71
2023/06/02 08:38:02;;;;;;;12.03;5.70;;;16.70;91.00;;;;;;5005126;28;20564;-70
2023/06/02 08:40:37;;;;;;;5.50;4.90;;;16.80;91.00;;;;;;5005833;28;20468;-71
2023/06/02 08:43:05;;;;;;;5.27;4.70;;;17.00;91.00;;;;;;4988746;28;21013;-71
2023/06/02 08:45:31;;;;;;;8.73;5.60;;;17.10;90.80;;;;;;4993643;28;20458;-71
2023/06/02 08:47:57;;;;;;;6.83;4.43;;;17.00;91.20;;;;;;5000434;28;20536;-71
2023/06/02 08:50:30;;;;;;;6.03;5.53;;;17.20;91.10;;;;;;4999043;28;20470;-71
2023/06/02 08:52:59;;;;;;;8.53;5.03;;;17.10;90.60;;;;;;5003219;28;20290;-70
2023/06/02 08:55:26;;;;;;;5.53;4.47;;;17.00;90.40;;;;;;5003023;28;20824;-72
2023/06/02 08:57:52;;;;;;;7.00;5.40;;;17.00;91.00;;;;;;5005366;28;21003;-71
2023/06/02 09:00:18;;;;;;;5.83;4.90;;;17.30;90.90;;;;;;5002921;28;20472;-70
2023/06/02 09:02:49;;;;;;;5.47;4.97;;;17.60;90.70;;;;;;4998775;28;20229;-71
2023/06/02 09:05:16;;;;;;;6.67;5.27;;;17.70;90.20;;;;;;5003525;28;20473;-71
2023/06/02 09:07:46;;;;;;;7.43;5.07;;;17.70;90.20;;;;;;5000104;28;20922;-71
2023/06/02 09:10:31;;;;;;;7.40;4.93;;;17.80;90.10;;;;;;5002121;28;20508;-71
2023/06/02 09:12:57;;;;;;;5.13;4.60;;;17.70;90.00;;;;;;4984485;28;20518;-71
2023/06/02 09:15:27;;;;;;;5.43;4.83;;;17.50;90.20;;;;;;5003231;28;21048;-70
2023/06/02 09:18:10;;;;;;;6.73;5.07;;;17.80;90.30;;;;;;5001181;28;20217;-71
2023/06/02 09:20:39;;;;;;;7.17;5.13;;;17.80;89.20;;;;;;5005499;28;20467;-71
2023/06/02 09:23:05;;;;;;;7.67;3.90;;;17.80;89.80;;;;;;5006063;28;20548;-71
2023/06/02 09:25:32;;;;;;;5.27;4.60;;;18.20;90.00;;;;;;4986082;28;20454;-71
2023/06/02 09:27:59;;;;;;;5.23;4.73;;;18.10;89.90;;;;;;4984236;28;20468;-71
2023/06/02 09:30:26;;;;;;;7.40;5.67;;;18.50;89.40;;;;;;5006310;28;20484;-70
2023/06/02 09:32:56;;;;;;;8.17;5.30;;;18.50;88.70;;;;;;4989098;28;20495;-71
2023/06/02 09:35:40;;;;;;;7.63;4.83;;;18.50;88.90;;;;;;5002905;28;20465;-71
2023/06/02 09:38:10;;;;;;;5.27;4.77;;;18.50;89.20;;;;;;4989483;28;20495;-70
2023/06/02 09:40:37;;;;;;;6.23;4.63;;;18.40;89.10;;;;;;5006611;28;20962;-72
2023/06/02 09:43:05;;;;;;;12.93;5.43;;;18.60;89.60;;;;;;5005880;28;20926;-71
2023/06/02 09:45:32;;;;;;;5.93;4.63;;;18.50;88.00;;;;;;5005453;28;20978;-70
2023/06/02 09:47:58;;;;;;;6.37;4.80;;;18.30;88.80;;;;;;4982159;28;20524;-71
2023/06/02 09:50:37;;;;;;;6.33;5.27;;;18.50;88.30;;;;;;4993042;28;20528;-70
2023/06/02 09:53:08;;;;;;;4.83;4.43;;;18.50;88.20;;;;;;5000112;28;20539;-71
2023/06/02 09:55:36;;;;;;;6.27;4.97;;;18.80;88.00;;;;;;5004284;28;20470;-71
2023/06/02 09:58:02;;;;;;;4.23;3.83;;;18.60;87.80;;;;;;4987193;28;20488;-71
2023/06/02 10:00:29;;;;;;;6.83;4.40;;;18.70;87.30;;;;;;5005348;28;20456;-71
2023/06/02 10:02:54;;;;;;;7.37;4.70;;;18.80;86.90;;;;;;4996772;28;20509;-72
2023/06/02 10:05:22;;;;;;;5.70;5.10;;;18.80;86.50;;;;;;5000516;28;20481;-70
2023/06/02 10:07:57;;;;;;;4.83;4.20;;;18.90;86.70;;;;;;4999582;28;20218;-71
2023/06/02 10:10:26;;;;;;;6.17;5.00;;;18.80;86.90;;;;;;4994091;28;20519;-70
2023/06/02 10:13:28;;;;;;;4.93;4.20;;;18.80;87.20;;;;;;4986517;28;20466;-71
2023/06/02 10:16:23;;;;;;;6.63;4.60;;;18.70;87.00;;;;;;5000744;28;20469;-71
2023/06/02 10:19:00;;;;;;;10.43;5.13;;;18.80;86.50;;;;;;4999353;28;21005;-71
2023/06/02 10:21:37;;;;;;;6.40;3.47;;;18.60;86.60;;;;;;5006709;28;20467;-70
2023/06/02 10:24:27;;;;;;;4.63;4.23;;;19.00;86.30;;;;;;5001517;28;20507;-71
2023/06/02 10:27:11;;;;;;;6.97;4.17;;;19.00;85.90;;;;;;5002792;28;20532;-71
2023/06/02 10:29:38;;;;;;;5.60;4.53;;;19.50;85.50;;;;;;5008433;28;20482;-71
2023/06/02 10:32:24;;;;;;;5.80;3.83;;;19.40;84.10;;;;;;5005211;28;20471;-70
2023/06/02 10:34:56;;;;;;;7.70;3.90;;;19.00;85.00;;;;;;5005120;28;20560;-70
2023/06/02 10:37:23;;;;;;;4.63;3.63;;;19.60;84.50;;;;;;5000003;28;20453;-71
2023/06/02 10:39:52;;;;;;;5.87;4.50;;;19.60;83.20;;;;;;4997498;28;20474;-71
2023/06/02 10:42:23;;;;;;;4.73;3.83;;;19.30;82.70;;;;;;4998472;28;20464;-71
2023/06/02 10:44:49;;;;;;;5.63;4.47;;;19.10;83.50;;;;;;4998058;28;20497;-71
2023/06/02 10:47:17;;;;;;;4.07;3.70;;;19.10;84.20;;;;;;5003981;28;21057;-70
2023/06/02 10:49:53;;;;;;;6.10;3.20;;;19.70;83.50;;;;;;5001847;28;20324;-71
2023/06/02 10:52:19;;;;;;;3.83;3.50;;;20.00;83.10;;;;;;5006293;28;20480;-70
2023/06/02 10:55:05;;;;;;;4.70;3.87;;;20.40;82.50;;;;;;4981986;28;20492;-71
2023/06/02 10:57:52;;;;;;;7.27;4.57;;;19.90;82.50;;;;;;5002010;28;20445;-70
2023/06/02 11:00:36;;;;;;;3.70;3.37;;;19.60;81.90;;;;;;4994234;28;20450;-69
2023/06/02 11:03:27;;;;;;;3.90;3.00;;;20.10;81.30;;;;;;5002440;28;20552;-71
2023/06/02 11:06:19;;;;;;;4.83;4.17;;;20.20;81.80;;;;;;5003658;28;20467;-70
2023/06/02 11:08:47;;;;;;;4.57;3.40;;;20.40;80.60;;;;;;4987178;28;20472;-71
2023/06/02 11:11:49;;;;;;;4.33;3.93;;;20.50;81.30;;;;;;5005517;28;20469;-71
2023/06/02 11:14:15;;;;;;;5.03;4.27;;;20.10;80.70;;;;;;4987882;28;20965;-71
2023/06/02 11:16:40;;;;;;;4.60;3.60;;;20.30;80.90;;;;;;5007022;28;20484;-72
2023/06/02 11:19:06;;;;;;;6.33;4.13;;;20.40;81.10;;;;;;4990142;28;20253;-72
2023/06/02 11:21:33;;;;;;;3.73;3.33;;;20.70;80.70;;;;;;5004614;28;20586;-72
2023/06/02 11:23:58;;;;;;;7.53;3.60;;;20.60;80.50;;;;;;5005095;28;20222;-72
2023/06/02 11:26:24;;;;;;;3.87;3.57;;;20.60;79.70;;;;;;4986416;28;20460;-71
2023/06/02 11:28:49;;;;;;;4.70;3.40;;;20.60;80.10;;;;;;5004095;28;21062;-71
2023/06/02 11:31:19;;;;;;;4.40;3.80;;;20.50;79.90;;;;;;5001537;28;20249;-72
2023/06/02 11:33:49;;;;;;;3.73;3.40;;;20.90;80.20;;;;;;5005322;28;20284;-71
2023/06/02 11:36:24;;;;;;;7.23;3.97;;;21.10;79.00;;;;;;5000295;28;21022;-72
2023/06/02 11:38:50;;;;;;;2.90;2.70;;;20.70;78.40;;;;;;5000466;28;20477;-72
2023/06/02 11:41:21;;;;;;;3.20;3.00;;;21.00;78.80;;;;;;5000879;28;20470;-71
2023/06/02 11:43:50;;;;;;;3.23;2.90;;;20.70;78.70;;;;;;5003624;28;20214;-71
2023/06/02 11:46:18;;;;;;;3.60;3.30;;;20.50;79.50;;;;;;5003594;28;20473;-71
2023/06/02 11:48:44;;;;;;;5.13;3.20;;;20.80;79.00;;;;;;5004038;28;20521;-72
2023/06/02 11:51:12;;;;;;;4.00;3.27;;;21.00;79.00;;;;;;4999762;28;20487;-72
2023/06/02 11:53:43;;;;;;;5.10;3.60;;;21.60;79.10;;;;;;4988626;28;20467;-72
2023/06/02 11:56:12;;;;;;;3.27;3.07;;;21.70;77.70;;;;;;5002923;28;20464;-72
2023/06/02 11:58:43;;;;;;;5.70;4.00;;;20.90;77.80;;;;;;5003443;28;20461;-72
2023/06/02 12:01:12;;;;;;;4.23;3.43;;;20.90;78.10;;;;;;4994644;28;20546;-73
2023/06/02 12:03:38;;;;;;;3.80;3.50;;;21.50;78.70;;;;;;5001705;28;20999;-72
2023/06/02 12:06:14;;;;;;;3.60;3.30;;;21.60;78.10;;;;;;5013012;28;20500;-72
2023/06/02 12:08:40;;;;;;;4.20;3.73;;;21.70;78.00;;;;;;4984700;28;20229;-72
2023/06/02 12:11:21;;;;;;;3.40;2.80;;;21.40;77.40;;;;;;5003081;28;20488;-72
2023/06/02 12:14:07;;;;;;;6.10;3.30;;;21.60;76.60;;;;;;5005137;28;20213;-73
2023/06/02 12:16:34;;;;;;;4.30;3.30;;;22.00;76.30;;;;;;5001577;28;20848;-72
2023/06/02 12:19:21;;;;;;;5.30;3.67;;;21.50;76.30;;;;;;5003849;28;20473;-72
2023/06/02 12:21:50;;;;;;;4.90;3.50;;;21.20;76.60;;;;;;4990823;28;20477;-72
2023/06/02 12:24:38;;;;;;;4.97;3.53;;;21.30;77.20;;;;;;5002915;28;20461;-72
2023/06/02 12:27:08;;;;;;;3.27;2.97;;;21.60;76.00;;;;;;4984479;28;20511;-72
2023/06/02 12:29:36;;;;;;;6.60;3.87;;;21.40;75.30;;;;;;5000431;28;21399;-71
2023/06/02 12:32:04;;;;;;;4.43;3.67;;;21.70;75.80;;;;;;4982316;28;20486;-71
2023/06/02 12:34:30;;;;;;;4.73;3.37;;;21.90;75.80;;;;;;5006936;28;20476;-73
2023/06/02 12:36:56;;;;;;;3.27;2.97;;;22.00;76.30;;;;;;5000733;28;20552;-73
2023/06/02 12:39:23;;;;;;;4.70;3.50;;;21.90;76.30;;;;;;4976127;28;20536;-71
2023/06/02 12:41:49;;;;;;;5.23;3.40;;;21.60;76.80;;;;;;4988122;28;20465;-72
2023/06/02 12:44:15;;;;;;;3.87;3.10;;;21.60;76.50;;;;;;5002106;28;20477;-72
2023/06/02 12:46:41;;;;;;;3.40;3.20;;;21.60;75.30;;;;;;5001231;28;20240;-73
2023/06/02 12:49:08;;;;;;;4.20;3.90;;;21.20;75.50;;;;;;5002092;28;20218;-73
2023/06/02 12:51:35;;;;;;;3.53;3.13;;;21.50;75.80;;;;;;5001127;28;20469;-72